sensor_id;sensor_type;location;lat;lon;timestamp;P1;durP1;ratioP1;P2;durP2;ratioP2
9657;SDS011;4867;48.112;11.622;2023-05-21T00:00:28;9.87;;;8.80;;
9657;SDS011;4867;48.112;11.622;2023-05-21T00:02:55;9.60;;;8.60;;
9657;SDS011;4867;48.112;11.622;2023-05-21T00:05:25;9.33;;;8.27;;
9657;SDS011;4867;48.112;11.622;2023-05-21T00:07:52;8.83;;;8.03;;
9657;SDS011;4867;48.112;11.622;2023-05-21T00:10:21;9.17;;;8.37;;
9657;SDS011;4867;48.112;11.622;2023-05-21T00:12:48;9.90;;;8.93;;
9657;SDS011;4867;48.112;11.622;2023-05-21T00:15:16;9.63;;;8.77;;
9657;SDS011;4867;48.112;11.622;2023-05-21T00:17:43;9.20;;;8.30;;
9657;SDS011;4867;48.112;11.622;2023-05-21T00:20:11;10.00;;;9.00;;
9657;SDS011;4867;48.112;11.622;2023-05-21T00:22:39;9.03;;;8.23;;
9657;SDS011;4867;48.112;11.622;2023-05-21T00:25:08;9.03;;;8.23;;
9657;SDS011;4867;48.112;11.622;2023-05-21T00:27:36;9.60;;;8.70;;
9657;SDS011;4867;48.112;11.622;2023-05-21T00:30:04;9.33;;;8.43;;
9657;SDS011;4867;48.112;11.622;2023-05-21T00:32:32;9.50;;;8.70;;
9657;SDS011;4867;48.112;11.622;2023-05-21T00:35:00;9.57;;;8.37;;
9657;SDS011;4867;48.112;11.622;2023-05-21T00:37:27;8.90;;;8.10;;
9657;SDS011;4867;48.112;11.622;2023-05-21T00:40:00;8.73;;;7.90;;
9657;SDS011;4867;48.112;11.622;2023-05-21T00:42:27;9.40;;;8.50;;
9657;SDS011;4867;48.112;11.622;2023-05-21T00:44:56;9.10;;;8.20;;
9657;SDS011;4867;48.112;11.622;2023-05-21T00:47:23;9.17;;;8.30;;
9657;SDS011;4867;48.112;11.622;2023-05-21T00:49:52;9.73;;;8.57;;
9657;SDS011;4867;48.112;11.622;2023-05-21T00:52:20;9.53;;;8.73;;
9657;SDS011;4867;48.112;11.622;2023-05-21T00:54:48;9.17;;;8.27;;
9657;SDS011;4867;48.112;11.622;2023-05-21T00:57:21;9.07;;;8.23;;
9657;SDS011;4867;48.112;11.622;2023-05-21T00:59:50;8.17;;;7.47;;
9657;SDS011;4867;48.112;11.622;2023-05-21T01:02:18;8.73;;;8.00;;
9657;SDS011;4867;48.112;11.622;2023-05-21T01:04:46;8.97;;;8.17;;
9657;SDS011;4867;48.112;11.622;2023-05-21T01:07:13;8.97;;;8.13;;
9657;SDS011;4867;48.112;11.622;2023-05-21T01:09:40;10.40;;;8.17;;
9657;SDS011;4867;48.112;11.622;2023-05-21T01:12:09;8.43;;;7.50;;
9657;SDS011;4867;48.112;11.622;2023-05-21T01:14:37;9.40;;;7.83;;
9657;SDS011;4867;48.112;11.622;2023-05-21T01:17:06;8.10;;;7.40;;
9657;SDS011;4867;48.112;11.622;2023-05-21T01:19:37;8.60;;;7.80;;
9657;SDS011;4867;48.112;11.622;2023-05-21T01:22:05;9.20;;;8.30;;
9657;SDS011;4867;48.112;11.622;2023-05-21T01:24:34;8.97;;;8.07;;
9657;SDS011;4867;48.112;11.622;2023-05-21T01:27:02;9.37;;;7.80;;
9657;SDS011;4867;48.112;11.622;2023-05-21T01:29:32;9.60;;;7.47;;
9657;SDS011;4867;48.112;11.622;2023-05-21T01:32:15;9.07;;;7.37;;
9657;SDS011;4867;48.112;11.622;2023-05-21T01:35:53;8.27;;;7.57;;
9657;SDS011;4867;48.112;11.622;2023-05-21T01:37:54;7.50;;;6.80;;
9657;SDS011;4867;48.112;11.622;2023-05-21T01:40:32;8.43;;;7.63;;
9657;SDS011;4867;48.112;11.622;2023-05-21T01:43:05;8.50;;;7.60;;
9657;SDS011;4867;48.112;11.622;2023-05-21T01:45:34;10.03;;;8.40;;
9657;SDS011;4867;48.112;11.622;2023-05-21T01:48:05;8.57;;;7.67;;
9657;SDS011;4867;48.112;11.622;2023-05-21T01:50:34;10.10;;;7.97;;
9657;SDS011;4867;48.112;11.622;2023-05-21T01:53:03;8.57;;;7.73;;
9657;SDS011;4867;48.112;11.622;2023-05-21T01:55:31;8.30;;;7.60;;
9657;SDS011;4867;48.112;11.622;2023-05-21T01:57:59;8.07;;;7.27;;
9657;SDS011;4867;48.112;11.622;2023-05-21T02:00:28;8.57;;;7.57;;
9657;SDS011;4867;48.112;11.622;2023-05-21T02:02:58;9.07;;;7.93;;
9657;SDS011;4867;48.112;11.622;2023-05-21T02:05:25;9.40;;;8.37;;
9657;SDS011;4867;48.112;11.622;2023-05-21T02:07:53;8.30;;;7.40;;
9657;SDS011;4867;48.112;11.622;2023-05-21T02:10:21;8.90;;;8.10;;
9657;SDS011;4867;48.112;11.622;2023-05-21T02:12:48;9.40;;;8.40;;
9657;SDS011;4867;48.112;11.622;2023-05-21T02:15:15;9.27;;;8.47;;
9657;SDS011;4867;48.112;11.622;2023-05-21T02:17:46;8.30;;;7.50;;
9657;SDS011;4867;48.112;11.622;2023-05-21T02:20:13;9.23;;;8.23;;
9657;SDS011;4867;48.112;11.622;2023-05-21T02:22:41;8.63;;;7.83;;
9657;SDS011;4867;48.112;11.622;2023-05-21T02:25:10;9.40;;;8.40;;
9657;SDS011;4867;48.112;11.622;2023-05-21T02:27:39;9.10;;;7.30;;
9657;SDS011;4867;48.112;11.622;2023-05-21T02:30:08;10.13;;;7.90;;
9657;SDS011;4867;48.112;11.622;2023-05-21T02:32:37;10.97;;;7.67;;
9657;SDS011;4867;48.112;11.622;2023-05-21T02:35:10;8.97;;;8.07;;
9657;SDS011;4867;48.112;11.622;2023-05-21T02:37:38;9.30;;;7.33;;
9657;SDS011;4867;48.112;11.622;2023-05-21T02:40:06;8.40;;;7.70;;
9657;SDS011;4867;48.112;11.622;2023-05-21T02:42:36;8.17;;;7.37;;
9657;SDS011;4867;48.112;11.622;2023-05-21T02:45:09;8.40;;;7.30;;
9657;SDS011;4867;48.112;11.622;2023-05-21T02:47:39;7.87;;;7.17;;
9657;SDS011;4867;48.112;11.622;2023-05-21T02:50:07;8.13;;;7.40;;
9657;SDS011;4867;48.112;11.622;2023-05-21T02:52:42;8.10;;;7.30;;
9657;SDS011;4867;48.112;11.622;2023-05-21T02:55:09;9.80;;;7.40;;
9657;SDS011;4867;48.112;11.622;2023-05-21T02:57:37;8.10;;;7.30;;
9657;SDS011;4867;48.112;11.622;2023-05-21T03:00:04;9.03;;;8.13;;
9657;SDS011;4867;48.112;11.622;2023-05-21T03:02:37;8.90;;;8.00;;
9657;SDS011;4867;48.112;11.622;2023-05-21T03:05:04;8.80;;;8.00;;
9657;SDS011;4867;48.112;11.622;2023-05-21T03:07:32;9.30;;;8.10;;
9657;SDS011;4867;48.112;11.622;2023-05-21T03:10:00;8.57;;;7.77;;
9657;SDS011;4867;48.112;11.622;2023-05-21T03:12:27;8.90;;;8.00;;
9657;SDS011;4867;48.112;11.622;2023-05-21T03:14:54;9.07;;;8.13;;
9657;SDS011;4867;48.112;11.622;2023-05-21T03:17:22;8.43;;;7.67;;
9657;SDS011;4867;48.112;11.622;2023-05-21T03:19:49;8.47;;;7.73;;
9657;SDS011;4867;48.112;11.622;2023-05-21T03:22:17;9.50;;;7.77;;
9657;SDS011;4867;48.112;11.622;2023-05-21T03:24:45;9.20;;;8.40;;
9657;SDS011;4867;48.112;11.622;2023-05-21T03:27:13;9.37;;;8.53;;
9657;SDS011;4867;48.112;11.622;2023-05-21T03:29:42;9.33;;;8.20;;
9657;SDS011;4867;48.112;11.622;2023-05-21T03:32:11;9.27;;;8.37;;
9657;SDS011;4867;48.112;11.622;2023-05-21T03:34:39;9.07;;;8.33;;
9657;SDS011;4867;48.112;11.622;2023-05-21T03:37:06;9.43;;;8.47;;
9657;SDS011;4867;48.112;11.622;2023-05-21T03:39:34;9.47;;;8.60;;
9657;SDS011;4867;48.112;11.622;2023-05-21T03:42:01;9.37;;;8.50;;
9657;SDS011;4867;48.112;11.622;2023-05-21T03:44:41;9.47;;;8.57;;
9657;SDS011;4867;48.112;11.622;2023-05-21T03:47:20;13.13;;;9.37;;
9657;SDS011;4867;48.112;11.622;2023-05-21T03:49:49;9.63;;;8.63;;
9657;SDS011;4867;48.112;11.622;2023-05-21T03:52:16;10.77;;;9.50;;
9657;SDS011;4867;48.112;11.622;2023-05-21T03:54:44;10.10;;;9.13;;
9657;SDS011;4867;48.112;11.622;2023-05-21T03:57:11;9.93;;;8.67;;
9657;SDS011;4867;48.112;11.622;2023-05-21T03:59:39;9.90;;;9.00;;
9657;SDS011;4867;48.112;11.622;2023-05-21T04:02:06;9.40;;;8.50;;
9657;SDS011;4867;48.112;11.622;2023-05-21T04:04:33;9.30;;;8.40;;
9657;SDS011;4867;48.112;11.622;2023-05-21T04:07:01;10.23;;;8.53;;
9657;SDS011;4867;48.112;11.622;2023-05-21T04:09:30;9.20;;;8.40;;
9657;SDS011;4867;48.112;11.622;2023-05-21T04:11:57;9.60;;;8.70;;
9657;SDS011;4867;48.112;11.622;2023-05-21T04:14:24;10.13;;;9.20;;
9657;SDS011;4867;48.112;11.622;2023-05-21T04:16:52;10.13;;;9.23;;
9657;SDS011;4867;48.112;11.622;2023-05-21T04:19:20;10.67;;;9.67;;
9657;SDS011;4867;48.112;11.622;2023-05-21T04:21:48;10.00;;;9.00;;
9657;SDS011;4867;48.112;11.622;2023-05-21T04:24:17;9.87;;;8.37;;
9657;SDS011;4867;48.112;11.622;2023-05-21T04:26:54;10.20;;;9.17;;
9657;SDS011;4867;48.112;11.622;2023-05-21T04:29:23;10.33;;;8.90;;
9657;SDS011;4867;48.112;11.622;2023-05-21T04:31:51;10.47;;;9.57;;
9657;SDS011;4867;48.112;11.622;2023-05-21T04:34:19;10.73;;;9.73;;
9657;SDS011;4867;48.112;11.622;2023-05-21T04:36:46;10.40;;;9.37;;
9657;SDS011;4867;48.112;11.622;2023-05-21T04:39:13;10.23;;;9.23;;
9657;SDS011;4867;48.112;11.622;2023-05-21T04:41:42;9.57;;;8.77;;
9657;SDS011;4867;48.112;11.622;2023-05-21T04:44:10;9.73;;;8.93;;
9657;SDS011;4867;48.112;11.622;2023-05-21T04:46:42;9.87;;;8.87;;
9657;SDS011;4867;48.112;11.622;2023-05-21T04:49:11;10.20;;;8.60;;
9657;SDS011;4867;48.112;11.622;2023-05-21T04:51:39;10.13;;;9.23;;
9657;SDS011;4867;48.112;11.622;2023-05-21T04:54:07;11.93;;;8.87;;
9657;SDS011;4867;48.112;11.622;2023-05-21T04:56:34;9.70;;;8.70;;
9657;SDS011;4867;48.112;11.622;2023-05-21T04:59:02;9.60;;;8.80;;
9657;SDS011;4867;48.112;11.622;2023-05-21T05:01:32;9.13;;;8.33;;
9657;SDS011;4867;48.112;11.622;2023-05-21T05:04:00;9.87;;;8.87;;
9657;SDS011;4867;48.112;11.622;2023-05-21T05:06:28;9.87;;;8.93;;
9657;SDS011;4867;48.112;11.622;2023-05-21T05:08:56;9.63;;;8.73;;
9657;SDS011;4867;48.112;11.622;2023-05-21T05:11:24;9.77;;;8.87;;
9657;SDS011;4867;48.112;11.622;2023-05-21T05:13:52;8.80;;;8.07;;
9657;SDS011;4867;48.112;11.622;2023-05-21T05:16:19;9.40;;;8.53;;
9657;SDS011;4867;48.112;11.622;2023-05-21T05:18:52;9.33;;;8.43;;
9657;SDS011;4867;48.112;11.622;2023-05-21T05:21:20;9.77;;;8.87;;
9657;SDS011;4867;48.112;11.622;2023-05-21T05:23:49;8.90;;;7.87;;
9657;SDS011;4867;48.112;11.622;2023-05-21T05:26:17;9.10;;;8.20;;
9657;SDS011;4867;48.112;11.622;2023-05-21T05:28:44;9.20;;;8.07;;
9657;SDS011;4867;48.112;11.622;2023-05-21T05:31:12;8.47;;;7.57;;
9657;SDS011;4867;48.112;11.622;2023-05-21T05:33:42;9.10;;;8.20;;
9657;SDS011;4867;48.112;11.622;2023-05-21T05:36:10;9.07;;;8.17;;
9657;SDS011;4867;48.112;11.622;2023-05-21T05:38:37;9.10;;;8.20;;
9657;SDS011;4867;48.112;11.622;2023-05-21T05:41:05;9.03;;;8.23;;
9657;SDS011;4867;48.112;11.622;2023-05-21T05:43:33;9.07;;;8.27;;
9657;SDS011;4867;48.112;11.622;2023-05-21T05:46:00;9.47;;;8.57;;
9657;SDS011;4867;48.112;11.622;2023-05-21T05:48:27;9.27;;;8.13;;
9657;SDS011;4867;48.112;11.622;2023-05-21T05:50:58;9.37;;;8.47;;
9657;SDS011;4867;48.112;11.622;2023-05-21T05:53:25;10.13;;;8.17;;
9657;SDS011;4867;48.112;11.622;2023-05-21T05:55:53;9.00;;;8.20;;
9657;SDS011;4867;48.112;11.622;2023-05-21T05:58:20;8.90;;;8.20;;
9657;SDS011;4867;48.112;11.622;2023-05-21T06:00:55;8.80;;;8.00;;
9657;SDS011;4867;48.112;11.622;2023-05-21T06:03:26;8.50;;;7.73;;
9657;SDS011;4867;48.112;11.622;2023-05-21T06:05:54;9.70;;;8.27;;
9657;SDS011;4867;48.112;11.622;2023-05-21T06:08:22;9.43;;;8.53;;
9657;SDS011;4867;48.112;11.622;2023-05-21T06:10:51;8.97;;;8.17;;
9657;SDS011;4867;48.112;11.622;2023-05-21T06:13:18;10.13;;;7.90;;
9657;SDS011;4867;48.112;11.622;2023-05-21T06:15:46;9.00;;;7.93;;
9657;SDS011;4867;48.112;11.622;2023-05-21T06:18:13;9.10;;;8.37;;
9657;SDS011;4867;48.112;11.622;2023-05-21T06:20:41;8.17;;;7.47;;
9657;SDS011;4867;48.112;11.622;2023-05-21T06:23:09;8.30;;;7.50;;
9657;SDS011;4867;48.112;11.622;2023-05-21T06:25:36;8.30;;;7.60;;
9657;SDS011;4867;48.112;11.622;2023-05-21T06:28:04;8.63;;;7.83;;
9657;SDS011;4867;48.112;11.622;2023-05-21T06:30:32;8.67;;;7.77;;
9657;SDS011;4867;48.112;11.622;2023-05-21T06:33:00;7.90;;;7.10;;
9657;SDS011;4867;48.112;11.622;2023-05-21T06:35:27;8.60;;;7.33;;
9657;SDS011;4867;48.112;11.622;2023-05-21T06:37:54;7.90;;;7.20;;
9657;SDS011;4867;48.112;11.622;2023-05-21T06:40:22;8.50;;;7.70;;
9657;SDS011;4867;48.112;11.622;2023-05-21T06:42:52;8.10;;;7.40;;
9657;SDS011;4867;48.112;11.622;2023-05-21T06:45:40;7.93;;;7.13;;
9657;SDS011;4867;48.112;11.622;2023-05-21T06:48:20;7.87;;;7.20;;
9657;SDS011;4867;48.112;11.622;2023-05-21T06:50:47;7.57;;;6.90;;
9657;SDS011;4867;48.112;11.622;2023-05-21T06:53:16;8.20;;;7.40;;
9657;SDS011;4867;48.112;11.622;2023-05-21T06:55:44;7.60;;;7.00;;
9657;SDS011;4867;48.112;11.622;2023-05-21T06:58:19;9.90;;;7.17;;
9657;SDS011;4867;48.112;11.622;2023-05-21T07:00:47;7.70;;;6.77;;
9657;SDS011;4867;48.112;11.622;2023-05-21T07:03:14;7.70;;;7.00;;
9657;SDS011;4867;48.112;11.622;2023-05-21T07:05:42;7.90;;;7.10;;
9657;SDS011;4867;48.112;11.622;2023-05-21T07:08:10;7.80;;;7.10;;
9657;SDS011;4867;48.112;11.622;2023-05-21T07:10:38;8.77;;;7.40;;
9657;SDS011;4867;48.112;11.622;2023-05-21T07:13:06;7.40;;;6.80;;
9657;SDS011;4867;48.112;11.622;2023-05-21T07:15:33;7.50;;;6.80;;
9657;SDS011;4867;48.112;11.622;2023-05-21T07:18:01;7.30;;;6.60;;
9657;SDS011;4867;48.112;11.622;2023-05-21T07:20:29;7.47;;;6.87;;
9657;SDS011;4867;48.112;11.622;2023-05-21T07:23:00;8.63;;;6.93;;
9657;SDS011;4867;48.112;11.622;2023-05-21T07:25:27;8.57;;;7.70;;
9657;SDS011;4867;48.112;11.622;2023-05-21T07:27:56;7.87;;;7.07;;
9657;SDS011;4867;48.112;11.622;2023-05-21T07:30:23;8.10;;;7.30;;
9657;SDS011;4867;48.112;11.622;2023-05-21T07:32:51;7.77;;;6.97;;
9657;SDS011;4867;48.112;11.622;2023-05-21T07:35:18;7.10;;;6.50;;
9657;SDS011;4867;48.112;11.622;2023-05-21T07:37:46;7.93;;;7.23;;
9657;SDS011;4867;48.112;11.622;2023-05-21T07:40:14;7.37;;;6.67;;
9657;SDS011;4867;48.112;11.622;2023-05-21T07:42:42;7.40;;;6.70;;
9657;SDS011;4867;48.112;11.622;2023-05-21T07:45:11;7.57;;;6.93;;
9657;SDS011;4867;48.112;11.622;2023-05-21T07:50:11;7.60;;;6.90;;
9657;SDS011;4867;48.112;11.622;2023-05-21T07:52:40;8.33;;;7.63;;
9657;SDS011;4867;48.112;11.622;2023-05-21T07:55:08;10.33;;;7.37;;
9657;SDS011;4867;48.112;11.622;2023-05-21T07:57:37;7.67;;;6.83;;
9657;SDS011;4867;48.112;11.622;2023-05-21T08:00:11;7.70;;;6.97;;
9657;SDS011;4867;48.112;11.622;2023-05-21T08:02:48;7.97;;;7.27;;
9657;SDS011;4867;48.112;11.622;2023-05-21T08:05:16;7.37;;;6.73;;
9657;SDS011;4867;48.112;11.622;2023-05-21T08:07:44;7.73;;;7.07;;
9657;SDS011;4867;48.112;11.622;2023-05-21T08:10:12;8.47;;;7.57;;
9657;SDS011;4867;48.112;11.622;2023-05-21T08:12:39;7.67;;;6.97;;
9657;SDS011;4867;48.112;11.622;2023-05-21T08:15:07;8.27;;;7.43;;
9657;SDS011;4867;48.112;11.622;2023-05-21T08:17:40;7.80;;;7.20;;
9657;SDS011;4867;48.112;11.622;2023-05-21T08:20:08;8.50;;;7.70;;
9657;SDS011;4867;48.112;11.622;2023-05-21T08:22:37;8.20;;;7.43;;
9657;SDS011;4867;48.112;11.622;2023-05-21T08:25:05;8.60;;;7.70;;
9657;SDS011;4867;48.112;11.622;2023-05-21T08:27:34;8.73;;;7.83;;
9657;SDS011;4867;48.112;11.622;2023-05-21T08:30:02;8.00;;;7.37;;
9657;SDS011;4867;48.112;11.622;2023-05-21T08:32:31;8.47;;;7.53;;
9657;SDS011;4867;48.112;11.622;2023-05-21T08:34:58;8.30;;;7.60;;
9657;SDS011;4867;48.112;11.622;2023-05-21T08:37:42;9.13;;;7.97;;
9657;SDS011;4867;48.112;11.622;2023-05-21T08:40:16;8.50;;;7.80;;
9657;SDS011;4867;48.112;11.622;2023-05-21T08:42:47;8.40;;;7.70;;
9657;SDS011;4867;48.112;11.622;2023-05-21T08:45:32;8.93;;;8.03;;
9657;SDS011;4867;48.112;11.622;2023-05-21T08:48:04;9.07;;;8.27;;
9657;SDS011;4867;48.112;11.622;2023-05-21T08:50:35;9.30;;;8.40;;
9657;SDS011;4867;48.112;11.622;2023-05-21T08:53:10;9.80;;;8.13;;
9657;SDS011;4867;48.112;11.622;2023-05-21T08:55:54;9.30;;;8.03;;
9657;SDS011;4867;48.112;11.622;2023-05-21T08:58:22;8.87;;;8.13;;
9657;SDS011;4867;48.112;11.622;2023-05-21T09:00:52;8.37;;;7.50;;
9657;SDS011;4867;48.112;11.622;2023-05-21T09:03:21;8.93;;;8.03;;
9657;SDS011;4867;48.112;11.622;2023-05-21T09:05:50;8.47;;;7.77;;
9657;SDS011;4867;48.112;11.622;2023-05-21T09:08:18;9.17;;;8.37;;
9657;SDS011;4867;48.112;11.622;2023-05-21T09:11:00;8.57;;;7.88;;
9657;SDS011;4867;48.112;11.622;2023-05-21T09:13:41;9.20;;;8.30;;
9657;SDS011;4867;48.112;11.622;2023-05-21T09:16:17;9.27;;;8.38;;
9657;SDS011;4867;48.112;11.622;2023-05-21T09:18:45;8.05;;;7.45;;
9657;SDS011;4867;48.112;11.622;2023-05-21T09:24:17;10.73;;;8.20;;
9657;SDS011;4867;48.112;11.622;2023-05-21T09:26:48;9.40;;;8.40;;
9657;SDS011;4867;48.112;11.622;2023-05-21T09:29:16;9.05;;;8.15;;
9657;SDS011;4867;48.112;11.622;2023-05-21T09:31:44;8.60;;;7.80;;
9657;SDS011;4867;48.112;11.622;2023-05-21T09:34:12;8.25;;;7.50;;
9657;SDS011;4867;48.112;11.622;2023-05-21T09:36:41;8.75;;;7.95;;
9657;SDS011;4867;48.112;11.622;2023-05-21T09:39:09;8.15;;;7.35;;
9657;SDS011;4867;48.112;11.622;2023-05-21T09:41:42;9.00;;;7.85;;
9657;SDS011;4867;48.112;11.622;2023-05-21T09:44:09;8.35;;;7.55;;
9657;SDS011;4867;48.112;11.622;2023-05-21T09:46:40;8.00;;;7.20;;
9657;SDS011;4867;48.112;11.622;2023-05-21T09:49:20;8.20;;;7.50;;
9657;SDS011;4867;48.112;11.622;2023-05-21T09:51:49;8.05;;;6.80;;
9657;SDS011;4867;48.112;11.622;2023-05-21T09:54:20;7.28;;;6.68;;
9657;SDS011;4867;48.112;11.622;2023-05-21T09:56:48;7.45;;;6.85;;
9657;SDS011;4867;48.112;11.622;2023-05-21T09:59:19;8.13;;;6.93;;
9657;SDS011;4867;48.112;11.622;2023-05-21T10:01:49;7.60;;;6.78;;
9657;SDS011;4867;48.112;11.622;2023-05-21T10:04:17;7.38;;;6.63;;
9657;SDS011;4867;48.112;11.622;2023-05-21T10:06:45;10.38;;;7.25;;
9657;SDS011;4867;48.112;11.622;2023-05-21T10:09:14;7.57;;;6.88;;
9657;SDS011;4867;48.112;11.622;2023-05-21T10:11:44;9.18;;;7.10;;
9657;SDS011;4867;48.112;11.622;2023-05-21T10:14:15;7.93;;;7.05;;
9657;SDS011;4867;48.112;11.622;2023-05-21T10:16:46;7.57;;;6.88;;
9657;SDS011;4867;48.112;11.622;2023-05-21T10:19:14;7.70;;;6.97;;
9657;SDS011;4867;48.112;11.622;2023-05-21T10:21:42;9.23;;;7.65;;
9657;SDS011;4867;48.112;11.622;2023-05-21T10:24:11;7.65;;;6.90;;
9657;SDS011;4867;48.112;11.622;2023-05-21T10:26:39;7.57;;;6.90;;
9657;SDS011;4867;48.112;11.622;2023-05-21T10:29:07;8.18;;;7.47;;
9657;SDS011;4867;48.112;11.622;2023-05-21T10:31:35;8.15;;;7.35;;
9657;SDS011;4867;48.112;11.622;2023-05-21T10:34:05;8.15;;;7.45;;
9657;SDS011;4867;48.112;11.622;2023-05-21T10:36:33;8.07;;;7.38;;
9657;SDS011;4867;48.112;11.622;2023-05-21T10:39:03;8.20;;;7.50;;
9657;SDS011;4867;48.112;11.622;2023-05-21T10:41:34;8.63;;;7.53;;
9657;SDS011;4867;48.112;11.622;2023-05-21T10:47:03;8.45;;;7.47;;
9657;SDS011;4867;48.112;11.622;2023-05-21T10:49:53;7.70;;;6.93;;
9657;SDS011;4867;48.112;11.622;2023-05-21T10:52:37;7.60;;;6.97;;
9657;SDS011;4867;48.112;11.622;2023-05-21T11:00:33;7.72;;;6.90;;
9657;SDS011;4867;48.112;11.622;2023-05-21T11:03:01;8.10;;;7.30;;
9657;SDS011;4867;48.112;11.622;2023-05-21T11:08:21;7.72;;;6.90;;
9657;SDS011;4867;48.112;11.622;2023-05-21T11:11:04;9.18;;;7.38;;
9657;SDS011;4867;48.112;11.622;2023-05-21T11:13:44;7.97;;;7.35;;
9657;SDS011;4867;48.112;11.622;2023-05-21T11:16:16;7.70;;;7.00;;
9657;SDS011;4867;48.112;11.622;2023-05-21T11:21:15;7.90;;;7.15;;
9657;SDS011;4867;48.112;11.622;2023-05-21T11:24:03;7.85;;;7.15;;
9657;SDS011;4867;48.112;11.622;2023-05-21T11:29:30;8.48;;;7.05;;
9657;SDS011;4867;48.112;11.622;2023-05-21T11:32:09;7.70;;;6.85;;
9657;SDS011;4867;48.112;11.622;2023-05-21T11:34:38;7.97;;;7.38;;
9657;SDS011;4867;48.112;11.622;2023-05-21T11:42:42;7.78;;;7.00;;
9657;SDS011;4867;48.112;11.622;2023-05-21T11:45:17;7.32;;;6.72;;
9657;SDS011;4867;48.112;11.622;2023-05-21T11:47:46;7.50;;;6.90;;
9657;SDS011;4867;48.112;11.622;2023-05-21T11:50:15;7.75;;;7.05;;
9657;SDS011;4867;48.112;11.622;2023-05-21T11:52:43;7.70;;;7.10;;
9657;SDS011;4867;48.112;11.622;2023-05-21T11:55:11;8.05;;;7.22;;
9657;SDS011;4867;48.112;11.622;2023-05-21T11:57:41;8.00;;;7.18;;
9657;SDS011;4867;48.112;11.622;2023-05-21T12:00:14;7.13;;;6.53;;
9657;SDS011;4867;48.112;11.622;2023-05-21T12:02:46;8.43;;;7.40;;
9657;SDS011;4867;48.112;11.622;2023-05-21T12:05:16;7.30;;;6.60;;
9657;SDS011;4867;48.112;11.622;2023-05-21T12:07:46;8.23;;;7.25;;
9657;SDS011;4867;48.112;11.622;2023-05-21T12:10:15;9.63;;;7.05;;
9657;SDS011;4867;48.112;11.622;2023-05-21T12:12:46;7.43;;;6.82;;
9657;SDS011;4867;48.112;11.622;2023-05-21T12:15:22;7.35;;;6.72;;
9657;SDS011;4867;48.112;11.622;2023-05-21T12:17:50;8.50;;;7.57;;
9657;SDS011;4867;48.112;11.622;2023-05-21T12:20:19;7.38;;;6.78;;
9657;SDS011;4867;48.112;11.622;2023-05-21T12:22:49;8.10;;;7.30;;
9657;SDS011;4867;48.112;11.622;2023-05-21T12:25:18;7.53;;;6.82;;
9657;SDS011;4867;48.112;11.622;2023-05-21T12:27:47;7.28;;;6.57;;
9657;SDS011;4867;48.112;11.622;2023-05-21T12:30:16;7.65;;;7.00;;
9657;SDS011;4867;48.112;11.622;2023-05-21T12:32:43;7.57;;;6.88;;
9657;SDS011;4867;48.112;11.622;2023-05-21T12:35:20;7.50;;;6.80;;
9657;SDS011;4867;48.112;11.622;2023-05-21T12:37:49;7.38;;;6.78;;
9657;SDS011;4867;48.112;11.622;2023-05-21T12:40:17;7.63;;;6.90;;
9657;SDS011;4867;48.112;11.622;2023-05-21T12:42:45;7.50;;;6.90;;
9657;SDS011;4867;48.112;11.622;2023-05-21T12:45:13;7.65;;;6.95;;
9657;SDS011;4867;48.112;11.622;2023-05-21T12:47:40;8.30;;;7.45;;
9657;SDS011;4867;48.112;11.622;2023-05-21T12:50:13;7.80;;;7.20;;
9657;SDS011;4867;48.112;11.622;2023-05-21T12:52:40;7.72;;;7.13;;
9657;SDS011;4867;48.112;11.622;2023-05-21T12:55:11;8.60;;;7.40;;
9657;SDS011;4867;48.112;11.622;2023-05-21T12:57:39;7.93;;;7.30;;
9657;SDS011;4867;48.112;11.622;2023-05-21T13:00:07;8.70;;;7.80;;
9657;SDS011;4867;48.112;11.622;2023-05-21T13:02:42;7.40;;;6.70;;
9657;SDS011;4867;48.112;11.622;2023-05-21T13:05:15;7.20;;;6.63;;
9657;SDS011;4867;48.112;11.622;2023-05-21T13:07:43;7.05;;;6.45;;
9657;SDS011;4867;48.112;11.622;2023-05-21T13:10:13;7.55;;;6.85;;
9657;SDS011;4867;48.112;11.622;2023-05-21T13:12:42;7.88;;;6.75;;
9657;SDS011;4867;48.112;11.622;2023-05-21T13:15:10;7.28;;;6.68;;
9657;SDS011;4867;48.112;11.622;2023-05-21T13:17:38;7.60;;;6.95;;
9657;SDS011;4867;48.112;11.622;2023-05-21T13:25:09;7.10;;;6.40;;
9657;SDS011;4867;48.112;11.622;2023-05-21T13:27:37;7.22;;;6.50;;
9657;SDS011;4867;48.112;11.622;2023-05-21T13:30:05;6.90;;;6.30;;
9657;SDS011;4867;48.112;11.622;2023-05-21T13:32:33;7.20;;;6.70;;
9657;SDS011;4867;48.112;11.622;2023-05-21T13:35:01;7.75;;;6.88;;
9657;SDS011;4867;48.112;11.622;2023-05-21T13:37:29;7.35;;;6.82;;
9657;SDS011;4867;48.112;11.622;2023-05-21T13:39:56;7.53;;;6.68;;
9657;SDS011;4867;48.112;11.622;2023-05-21T13:42:24;7.35;;;6.75;;
9657;SDS011;4867;48.112;11.622;2023-05-21T13:44:51;6.88;;;6.22;;
9657;SDS011;4867;48.112;11.622;2023-05-21T13:47:18;7.20;;;6.60;;
9657;SDS011;4867;48.112;11.622;2023-05-21T13:49:45;7.13;;;6.60;;
9657;SDS011;4867;48.112;11.622;2023-05-21T13:52:13;7.40;;;6.35;;
9657;SDS011;4867;48.112;11.622;2023-05-21T13:54:41;7.32;;;6.45;;
9657;SDS011;4867;48.112;11.622;2023-05-21T13:57:08;7.32;;;6.72;;
9657;SDS011;4867;48.112;11.622;2023-05-21T13:59:36;8.05;;;6.60;;
9657;SDS011;4867;48.112;11.622;2023-05-21T14:02:03;8.55;;;7.10;;
9657;SDS011;4867;48.112;11.622;2023-05-21T14:04:31;8.15;;;7.45;;
9657;SDS011;4867;48.112;11.622;2023-05-21T14:06:58;7.30;;;6.70;;
9657;SDS011;4867;48.112;11.622;2023-05-21T14:09:25;7.70;;;7.00;;
9657;SDS011;4867;48.112;11.622;2023-05-21T14:11:53;7.07;;;6.43;;
9657;SDS011;4867;48.112;11.622;2023-05-21T14:14:21;7.32;;;6.43;;
9657;SDS011;4867;48.112;11.622;2023-05-21T14:16:49;6.53;;;6.03;;
9657;SDS011;4867;48.112;11.622;2023-05-21T14:19:17;7.82;;;7.05;;
9657;SDS011;4867;48.112;11.622;2023-05-21T14:21:44;7.25;;;6.63;;
9657;SDS011;4867;48.112;11.622;2023-05-21T14:24:12;6.93;;;6.32;;
9657;SDS011;4867;48.112;11.622;2023-05-21T14:26:39;8.75;;;7.50;;
9657;SDS011;4867;48.112;11.622;2023-05-21T14:29:07;9.57;;;7.47;;
9657;SDS011;4867;48.112;11.622;2023-05-21T14:31:34;8.38;;;7.78;;
9657;SDS011;4867;48.112;11.622;2023-05-21T14:34:02;8.63;;;7.03;;
9657;SDS011;4867;48.112;11.622;2023-05-21T14:36:30;7.30;;;6.60;;
9657;SDS011;4867;48.112;11.622;2023-05-21T14:38:58;7.20;;;6.60;;
9657;SDS011;4867;48.112;11.622;2023-05-21T14:41:25;7.00;;;6.40;;
9657;SDS011;4867;48.112;11.622;2023-05-21T14:43:53;7.80;;;7.10;;
9657;SDS011;4867;48.112;11.622;2023-05-21T14:46:20;7.75;;;6.95;;
9657;SDS011;4867;48.112;11.622;2023-05-21T14:48:47;8.55;;;7.70;;
9657;SDS011;4867;48.112;11.622;2023-05-21T14:51:15;8.32;;;7.53;;
9657;SDS011;4867;48.112;11.622;2023-05-21T14:53:42;7.35;;;6.75;;
9657;SDS011;4867;48.112;11.622;2023-05-21T14:56:09;7.68;;;6.90;;
9657;SDS011;4867;48.112;11.622;2023-05-21T14:58:36;7.60;;;6.90;;
9657;SDS011;4867;48.112;11.622;2023-05-21T15:01:04;7.57;;;6.70;;
9657;SDS011;4867;48.112;11.622;2023-05-21T15:03:32;7.22;;;6.53;;
9657;SDS011;4867;48.112;11.622;2023-05-21T15:05:59;6.53;;;5.93;;
9657;SDS011;4867;48.112;11.622;2023-05-21T15:08:26;7.68;;;6.97;;
9657;SDS011;4867;48.112;11.622;2023-05-21T15:10:54;7.45;;;6.75;;
9657;SDS011;4867;48.112;11.622;2023-05-21T15:13:22;7.32;;;6.72;;
9657;SDS011;4867;48.112;11.622;2023-05-21T15:15:49;7.50;;;6.90;;
9657;SDS011;4867;48.112;11.622;2023-05-21T15:18:17;8.52;;;7.65;;
9657;SDS011;4867;48.112;11.622;2023-05-21T15:20:44;7.40;;;6.72;;
9657;SDS011;4867;48.112;11.622;2023-05-21T15:23:12;7.93;;;6.93;;
9657;SDS011;4867;48.112;11.622;2023-05-21T15:25:43;7.35;;;6.55;;
9657;SDS011;4867;48.112;11.622;2023-05-21T15:28:11;7.22;;;6.53;;
9657;SDS011;4867;48.112;11.622;2023-05-21T15:30:38;6.93;;;6.43;;
9657;SDS011;4867;48.112;11.622;2023-05-21T15:33:06;7.22;;;6.45;;
9657;SDS011;4867;48.112;11.622;2023-05-21T15:35:33;7.30;;;6.60;;
9657;SDS011;4867;48.112;11.622;2023-05-21T15:38:02;7.60;;;6.90;;
9657;SDS011;4867;48.112;11.622;2023-05-21T15:40:30;7.30;;;6.25;;
9657;SDS011;4867;48.112;11.622;2023-05-21T15:42:58;8.77;;;7.00;;
9657;SDS011;4867;48.112;11.622;2023-05-21T15:45:25;7.13;;;6.53;;